createdAt,value
2023-04-19T00:01:01.575Z,145737.00
2023-04-19T00:03:30.468Z,145716.38
2023-04-19T00:06:00.672Z,145723.63
2023-04-19T00:08:27.833Z,145717.56
2023-04-19T00:10:54.930Z,145699.34
2023-04-19T00:13:21.968Z,145667.69
2023-04-19T00:15:49.117Z,145701.75
2023-04-19T00:18:16.229Z,145696.84
2023-04-19T00:20:43.611Z,145689.56
2023-04-19T00:23:10.696Z,145675.00
2023-04-19T00:25:37.770Z,145642.16
2023-04-19T00:28:05.112Z,145718.78
2023-04-19T00:30:32.296Z,145605.72
2023-04-19T00:32:59.363Z,145640.97
2023-04-19T00:35:26.492Z,145699.34
2023-04-19T00:37:53.520Z,145679.84
2023-04-19T00:40:20.603Z,145645.81
2023-04-19T00:42:47.676Z,145673.75
2023-04-19T00:45:14.905Z,145684.72
2023-04-19T00:47:42.029Z,145672.56
2023-04-19T00:50:09.747Z,145694.44
2023-04-19T00:52:36.925Z,145696.84
2023-04-19T00:55:05.344Z,145723.63
2023-04-19T00:57:32.441Z,145703.00
2023-04-19T00:59:59.724Z,145689.56
2023-04-19T01:02:28.408Z,145698.09
2023-04-19T01:04:55.702Z,145679.84
2023-04-19T01:07:22.800Z,145655.53
2023-04-19T01:09:49.859Z,145691.97
2023-04-19T01:12:16.916Z,145705.41
2023-04-19T01:14:44.333Z,145650.66
2023-04-19T01:17:13.299Z,145648.28
2023-04-19T01:19:40.972Z,145620.31
2023-04-19T01:22:08.589Z,145640.97
2023-04-19T01:24:36.679Z,145549.84
2023-04-19T01:27:04.001Z,145666.50
2023-04-19T01:29:31.047Z,145509.75
2023-04-19T01:31:58.053Z,145604.50
2023-04-19T01:34:27.495Z,145611.81
2023-04-19T01:36:54.591Z,145480.63
2023-04-19T01:39:22.968Z,145648.28
2023-04-19T01:41:49.940Z,145557.16
2023-04-19T01:44:17.180Z,145608.16
2023-04-19T01:46:44.463Z,145534.06
2023-04-19T01:49:12.983Z,145684.72
2023-04-19T01:51:40.389Z,145597.19
2023-04-19T01:54:07.455Z,145628.78
2023-04-19T01:56:34.488Z,145524.31
2023-04-19T01:59:02.332Z,145560.75
2023-04-19T02:01:30.834Z,145560.75
2023-04-19T02:03:59.046Z,145470.91
2023-04-19T02:06:26.972Z,145560.75
2023-04-19T02:08:54.143Z,145682.25
2023-04-19T02:11:21.219Z,145507.34
2023-04-19T02:13:48.292Z,145555.91
2023-04-19T02:16:15.373Z,145509.75
2023-04-19T02:18:43.074Z,145565.66
2023-04-19T02:21:11.234Z,145625.19
2023-04-19T02:23:38.335Z,145599.66
2023-04-19T02:26:05.702Z,145434.47
2023-04-19T02:28:33.182Z,145521.91
2023-04-19T02:31:04.599Z,145475.78
2023-04-19T02:33:35.362Z,145650.66
2023-04-19T02:36:02.630Z,145572.91
2023-04-19T02:38:29.821Z,145546.19
2023-04-19T02:40:56.873Z,145588.75
2023-04-19T02:43:24.261Z,145643.41
2023-04-19T02:45:51.426Z,145616.69
2023-04-19T02:48:18.543Z,145583.88
2023-04-19T02:50:45.592Z,145631.25
2023-04-19T02:53:12.715Z,145630.03
2023-04-19T02:55:40.010Z,145581.44
2023-04-19T02:58:13.655Z,145636.09
2023-04-19T03:00:49.809Z,145606.97
2023-04-19T03:03:20.307Z,145569.28
2023-04-19T03:05:47.504Z,145614.22
2023-04-19T03:08:14.521Z,145616.69
2023-04-19T03:10:41.769Z,145625.19
2023-04-19T03:13:09.631Z,145625.19
2023-04-19T03:15:36.726Z,145626.38
2023-04-19T03:18:04.019Z,145615.44
2023-04-19T03:20:31.457Z,145548.66
2023-04-19T03:22:58.553Z,145572.91
2023-04-19T03:25:26.005Z,145547.44
2023-04-19T03:28:00.695Z,145582.63
2023-04-19T03:30:47.689Z,145548.66
2023-04-19T03:33:14.942Z,145580.22
2023-04-19T03:35:44.045Z,145602.09
2023-04-19T03:38:12.034Z,145604.50
2023-04-19T03:40:39.201Z,145582.63
2023-04-19T03:43:08.170Z,145504.91
2023-04-19T03:45:35.425Z,145564.41
2023-04-19T03:48:03.261Z,145555.91
2023-04-19T03:50:31.061Z,145531.63
2023-04-19T03:52:58.616Z,145532.81
2023-04-19T03:55:25.774Z,145536.47
2023-04-19T03:57:52.984Z,145565.66
2023-04-19T04:00:29.283Z,145524.31
2023-04-19T04:03:00.430Z,145552.28
2023-04-19T04:05:28.724Z,145526.78
2023-04-19T04:07:56.341Z,145545.00
2023-04-19T04:10:23.596Z,145553.50
2023-04-19T04:12:51.416Z,145485.47
2023-04-19T04:15:25.056Z,145523.13
2023-04-19T04:17:54.023Z,145504.91
2023-04-19T04:20:21.452Z,145526.78
2023-04-19T04:22:50.536Z,145514.59
2023-04-19T04:25:22.389Z,145563.22
2023-04-19T04:27:52.276Z,145538.94
2023-04-19T04:30:21.233Z,145525.56
2023-04-19T04:32:51.228Z,145526.78
2023-04-19T04:35:18.626Z,145521.91
2023-04-19T04:37:56.450Z,145456.34
2023-04-19T04:40:23.542Z,145537.69
2023-04-19T04:42:52.887Z,145517.06
2023-04-19T04:45:20.133Z,145588.75
2023-04-19T04:47:49.701Z,145566.88
2023-04-19T04:50:17.058Z,145529.22
2023-04-19T04:52:44.439Z,145549.84
2023-04-19T04:55:17.401Z,145517.06
2023-04-19T04:57:45.138Z,145562.00
2023-04-19T05:00:18.241Z,145514.59
2023-04-19T05:02:54.488Z,145530.41
2023-04-19T05:05:23.171Z,145559.56
2023-04-19T05:07:50.339Z,145500.03
2023-04-19T05:10:17.487Z,145480.63
2023-04-19T05:12:46.234Z,145538.94
2023-04-19T05:15:13.304Z,145553.50
2023-04-19T05:17:45.253Z,145535.28
2023-04-19T05:20:13.937Z,145596.00
2023-04-19T05:22:41.764Z,145600.84
2023-04-19T05:25:10.824Z,145597.19
2023-04-19T05:27:38.611Z,145568.06
2023-04-19T05:30:06.607Z,145610.56
2023-04-19T05:32:35.420Z,145587.50
2023-04-19T05:35:05.062Z,145580.22
2023-04-19T05:37:32.978Z,145580.22
2023-04-19T05:40:00.134Z,145586.28
2023-04-19T05:42:27.550Z,145564.41
2023-04-19T05:44:54.557Z,145599.66
2023-04-19T05:47:22.807Z,145602.09
2023-04-19T05:50:14.979Z,145627.59
2023-04-19T05:52:47.380Z,145592.34
2023-04-19T05:55:14.549Z,145565.66
2023-04-19T05:57:44.904Z,145621.53
2023-04-19T06:00:12.667Z,145572.91
2023-04-19T06:02:59.855Z,145626.38
2023-04-19T06:05:27.345Z,145633.66
2023-04-19T06:08:02.866Z,145619.06
2023-04-19T06:10:40.270Z,145643.41
2023-04-19T06:13:17.479Z,145655.53
2023-04-19T06:15:44.620Z,145672.56
2023-04-19T06:18:19.823Z,145682.25
2023-04-19T06:20:47.370Z,145684.72
2023-04-19T06:23:14.891Z,145696.84
2023-04-19T06:25:42.533Z,145756.44
2023-04-19T06:28:09.552Z,145730.94
2023-04-19T06:30:36.613Z,145675.00
2023-04-19T06:33:03.760Z,145752.81
2023-04-19T06:35:31.610Z,145711.50
2023-04-19T06:38:01.728Z,145711.50
2023-04-19T06:40:31.681Z,145691.97
2023-04-19T06:42:58.686Z,145700.53
2023-04-19T06:45:26.069Z,145685.91
2023-04-19T06:47:53.255Z,145729.75
2023-04-19T06:50:20.653Z,145653.13
2023-04-19T06:52:47.719Z,145777.13
2023-04-19T06:55:14.767Z,145799.00
2023-04-19T06:57:42.778Z,145755.22
2023-04-19T07:00:10.849Z,145869.50
2023-04-19T07:02:38.011Z,145822.09
2023-04-19T07:05:05.688Z,145841.53
2023-04-19T07:07:33.368Z,145910.84
2023-04-19T07:10:00.364Z,145940.03
2023-04-19T07:12:27.785Z,145920.56
2023-04-19T07:14:57.143Z,145824.50
2023-04-19T07:17:24.318Z,145756.44
2023-04-19T07:19:51.398Z,145816.00
2023-04-19T07:22:18.429Z,145811.13
2023-04-19T07:24:45.500Z,145859.78
2023-04-19T07:27:14.224Z,145785.63
2023-04-19T07:29:41.360Z,145857.31
2023-04-19T07:32:08.614Z,145772.25
2023-04-19T07:34:37.980Z,145905.97
2023-04-19T07:37:05.258Z,145933.94
2023-04-19T07:39:32.869Z,145995.97
2023-04-19T07:42:01.626Z,146054.38
2023-04-19T07:44:28.633Z,146122.56
2023-04-19T07:46:55.906Z,146143.22
2023-04-19T07:49:22.909Z,146161.47
2023-04-19T07:51:49.919Z,146196.75
2023-04-19T07:54:18.044Z,146137.13
2023-04-19T07:56:45.914Z,146196.75
2023-04-19T07:59:12.931Z,146267.34
2023-04-19T08:01:40.071Z,146239.34
2023-04-19T08:04:08.113Z,146336.75
2023-04-19T08:06:37.776Z,146331.84
2023-04-19T08:09:05.025Z,146317.25
2023-04-19T08:11:32.060Z,146328.22
2023-04-19T08:14:09.370Z,146309.97
2023-04-19T08:17:19.273Z,146334.31
2023-04-19T08:19:28.950Z,146301.44
2023-04-19T08:21:56.641Z,146251.53
2023-04-19T08:24:23.629Z,146255.19
2023-04-19T08:26:53.553Z,146292.91
2023-04-19T08:29:22.081Z,146324.56
2023-04-19T08:31:49.228Z,146246.66
2023-04-19T08:34:16.286Z,146224.75
2023-04-19T08:36:51.913Z,146238.16
2023-04-19T08:39:32.510Z,146234.47
2023-04-19T08:42:18.427Z,146249.06
2023-04-19T08:45:17.170Z,146157.81
2023-04-19T08:47:58.832Z,146171.19
2023-04-19T08:50:34.604Z,146216.22
2023-04-19T08:55:59.276Z,146188.25
2023-04-19T09:01:06.917Z,146251.53
2023-04-19T09:03:44.038Z,146233.28
2023-04-19T09:06:18.776Z,146180.91
2023-04-19T09:08:45.998Z,146290.47
2023-04-19T09:11:13.104Z,146262.47
2023-04-19T09:13:42.381Z,146180.91
2023-04-19T09:16:23.878Z,146201.63
2023-04-19T09:19:02.448Z,146207.69
2023-04-19T09:21:36.158Z,146206.50
2023-04-19T09:24:03.846Z,146232.06
2023-04-19T09:26:32.070Z,146195.56
2023-04-19T09:29:02.262Z,146278.31
2023-04-19T09:31:48.075Z,146297.78
2023-04-19T09:34:19.269Z,146326.97
2023-04-19T09:36:46.906Z,146305.09
2023-04-19T09:39:14.603Z,146346.50
2023-04-19T09:41:54.907Z,146402.50
2023-04-19T09:45:01.632Z,146400.03
2023-04-19T09:47:26.502Z,146424.47
2023-04-19T09:50:21.274Z,146468.28
2023-04-19T09:52:52.174Z,146443.94
2023-04-19T09:57:49.661Z,146512.16
2023-04-19T10:00:16.996Z,146469.53
2023-04-19T10:02:48.683Z,146487.81
2023-04-19T10:05:21.227Z,146491.41
2023-04-19T10:07:54.891Z,146585.22
2023-04-19T10:10:40.365Z,146512.16
2023-04-19T10:15:51.375Z,146562.09
2023-04-19T10:18:21.507Z,146542.63
2023-04-19T10:21:01.441Z,146509.69
2023-04-19T10:23:29.226Z,146504.81
2023-04-19T10:25:58.232Z,146492.66
2023-04-19T10:28:28.649Z,146517.00
2023-04-19T10:31:02.564Z,146553.56
2023-04-19T10:33:31.984Z,146475.59
2023-04-19T10:35:59.847Z,146535.28
2023-04-19T10:38:47.769Z,146565.75
2023-04-19T10:41:17.904Z,146610.84
2023-04-19T10:43:54.949Z,146599.84
2023-04-19T10:46:22.053Z,146558.44
2023-04-19T10:48:59.065Z,146376.91
2023-04-19T10:51:36.454Z,146475.59
2023-04-19T10:54:08.242Z,146478.03
2023-04-19T10:56:35.510Z,146553.56
2023-04-19T10:59:08.154Z,146590.09
2023-04-19T11:01:39.995Z,146565.75
2023-04-19T11:04:11.748Z,146635.19
2023-04-19T11:06:54.155Z,146558.44
2023-04-19T11:09:25.520Z,146451.25
2023-04-19T11:11:54.230Z,146428.13
2023-04-19T11:14:21.594Z,146509.69
2023-04-19T11:16:48.662Z,146453.66
2023-04-19T11:19:16.844Z,146446.41
2023-04-19T11:21:48.224Z,146468.28
2023-04-19T11:24:18.921Z,146487.81
2023-04-19T11:26:47.014Z,146542.63
2023-04-19T11:29:14.563Z,146551.09
2023-04-19T11:31:46.389Z,146559.63
2023-04-19T11:34:13.683Z,146582.78
2023-04-19T11:36:51.655Z,146636.41
2023-04-19T11:39:19.469Z,146592.56
2023-04-19T11:41:47.296Z,146575.50
2023-04-19T11:44:20.380Z,146470.75
2023-04-19T11:47:05.134Z,146514.56
2023-04-19T11:49:34.051Z,146537.75
2023-04-19T11:52:05.272Z,146532.81
2023-04-19T11:54:33.598Z,146487.81
2023-04-19T11:57:04.540Z,146495.09
2023-04-19T11:59:33.254Z,146485.34
2023-04-19T12:02:06.941Z,146465.88
2023-04-19T12:04:35.023Z,146459.75
2023-04-19T12:07:04.157Z,146519.47
2023-04-19T12:09:34.882Z,146517.00
2023-04-19T12:12:02.191Z,146475.59
2023-04-19T12:14:30.434Z,146486.56
2023-04-19T12:17:08.926Z,146496.28
2023-04-19T12:19:44.217Z,146491.41
2023-04-19T12:22:17.285Z,146560.88
2023-04-19T12:24:44.427Z,146565.75
2023-04-19T12:27:11.887Z,146565.75
2023-04-19T12:29:39.456Z,146592.56
2023-04-19T12:32:06.952Z,146551.09
2023-04-19T12:34:34.014Z,146446.41
2023-04-19T12:37:01.412Z,146521.88
2023-04-19T12:39:28.896Z,146581.56
2023-04-19T12:41:56.786Z,146585.22
2023-04-19T12:44:23.950Z,146597.44
2023-04-19T12:46:51.040Z,146634.00
2023-04-19T12:49:20.008Z,146632.72
2023-04-19T12:51:47.586Z,146670.53
2023-04-19T12:54:15.622Z,146725.44
2023-04-19T12:56:42.877Z,146688.81
2023-04-19T12:59:09.965Z,146699.78
2023-04-19T13:01:37.098Z,146655.88
2023-04-19T13:04:04.470Z,146683.94
2023-04-19T13:06:31.672Z,146694.91
2023-04-19T13:09:01.134Z,146646.13
2023-04-19T13:11:28.708Z,146697.31
2023-04-19T13:13:55.774Z,146749.78
2023-04-19T13:16:23.093Z,146775.41
2023-04-19T13:18:52.302Z,146777.81
2023-04-19T13:21:19.396Z,146735.19
2023-04-19T13:23:46.472Z,146680.28
2023-04-19T13:26:14.000Z,146584.03
2023-04-19T13:28:42.238Z,146562.09
2023-04-19T13:31:09.274Z,146687.56
2023-04-19T13:33:36.731Z,146631.53
2023-04-19T13:36:04.095Z,146554.75
2023-04-19T13:38:31.364Z,146573.03
2023-04-19T13:40:59.349Z,146587.66
2023-04-19T13:43:26.560Z,146536.50
2023-04-19T13:45:53.962Z,146634.00
2023-04-19T13:48:21.414Z,146668.09
2023-04-19T13:50:50.912Z,146597.44
2023-04-19T13:56:09.111Z,146582.78
2023-04-19T13:58:36.596Z,146631.53
2023-04-19T14:01:03.718Z,146620.59
2023-04-19T14:03:31.378Z,146556.00
2023-04-19T14:05:58.683Z,146556.00
2023-04-19T14:08:25.760Z,146626.66
2023-04-19T14:10:52.864Z,146652.28
2023-04-19T14:13:19.886Z,146640.06
2023-04-19T14:15:46.958Z,146608.38
2023-04-19T14:18:14.027Z,146598.66
2023-04-19T14:20:41.087Z,146576.69
2023-04-19T14:23:08.165Z,146582.78
2023-04-19T14:25:36.684Z,146560.88
2023-04-19T14:28:03.835Z,146687.56
2023-04-19T14:30:31.333Z,146625.44
2023-04-19T14:32:58.550Z,146694.91
2023-04-19T14:35:25.723Z,146630.31
2023-04-19T14:37:52.790Z,146573.03
2023-04-19T14:40:20.500Z,146558.44
2023-04-19T14:42:47.503Z,146574.28
2023-04-19T14:45:14.615Z,146543.81
2023-04-19T14:47:41.680Z,146531.63
2023-04-19T14:50:09.322Z,146575.50
2023-04-19T14:52:36.389Z,146568.16
2023-04-19T14:55:03.995Z,146485.34
2023-04-19T14:57:31.068Z,146463.41
2023-04-19T14:59:58.201Z,146509.69
2023-04-19T15:02:25.458Z,146442.72
2023-04-19T15:04:53.317Z,146456.13
2023-04-19T15:07:21.452Z,146425.66
2023-04-19T15:09:48.556Z,146456.13
2023-04-19T15:12:15.628Z,146476.81
2023-04-19T15:14:42.659Z,146536.50
2023-04-19T15:17:09.737Z,146542.63
2023-04-19T15:19:38.689Z,146580.38
2023-04-19T15:22:06.245Z,146643.72
2023-04-19T15:24:36.175Z,146621.78
2023-04-19T15:27:03.977Z,146794.91
2023-04-19T15:29:31.002Z,147046.16
2023-04-19T15:31:58.114Z,147284.16
2023-04-19T15:34:25.339Z,147439.22
2023-04-19T15:36:52.405Z,147300.00
2023-04-19T15:39:19.516Z,147317.09
2023-04-19T15:41:46.551Z,147439.22
2023-04-19T15:44:13.625Z,147538.16
2023-04-19T15:46:40.756Z,147551.59
2023-04-19T15:49:07.886Z,147495.41
2023-04-19T15:51:34.958Z,147556.47
2023-04-19T15:54:01.935Z,147580.88
2023-04-19T15:56:28.950Z,147698.19
2023-04-19T15:58:55.962Z,147761.78
2023-04-19T16:01:23.229Z,147950.09
2023-04-19T16:03:50.456Z,147871.81
2023-04-19T16:06:17.687Z,147627.34
2023-04-19T16:08:44.735Z,147512.53
2023-04-19T16:11:11.773Z,147386.69
2023-04-19T16:13:38.955Z,147343.97
2023-04-19T16:16:06.503Z,147068.06
2023-04-19T16:18:33.582Z,147513.75
2023-04-19T16:21:00.654Z,147550.38
2023-04-19T16:23:27.696Z,147617.53
2023-04-19T16:25:56.654Z,147385.47
2023-04-19T16:28:24.010Z,147339.06
2023-04-19T16:30:51.003Z,147787.47
2023-04-19T16:33:18.150Z,147759.31
2023-04-19T16:35:45.357Z,147466.03
2023-04-19T16:38:12.399Z,147497.84
2023-04-19T16:40:39.466Z,147304.88
2023-04-19T16:43:06.621Z,146966.78
2023-04-19T16:45:33.946Z,146626.66
2023-04-19T16:48:01.094Z,146491.41
2023-04-19T16:50:28.284Z,146980.22
2023-04-19T16:52:55.300Z,147426.97
2023-04-19T16:55:22.453Z,147749.56
2023-04-19T16:57:50.896Z,147615.13
2023-04-19T17:00:18.187Z,147796.00
2023-04-19T17:02:45.365Z,148072.41
2023-04-19T17:05:13.765Z,148008.78
2023-04-19T17:07:40.946Z,147915.84
2023-04-19T17:10:08.573Z,147813.13
2023-04-19T17:12:35.675Z,147668.88
2023-04-19T17:15:03.181Z,147532.06
2023-04-19T17:17:30.469Z,147579.69
2023-04-19T17:19:57.673Z,147693.31
2023-04-19T17:22:24.947Z,147481.94
2023-04-19T17:24:53.975Z,147065.66
2023-04-19T17:27:21.109Z,146741.25
2023-04-19T17:29:48.119Z,146524.34
2023-04-19T17:32:15.469Z,146450.00
2023-04-19T17:34:42.556Z,146322.13
2023-04-19T17:37:09.606Z,146292.91
2023-04-19T17:39:36.736Z,146207.69
2023-04-19T17:42:03.846Z,146161.47
2023-04-19T17:44:30.884Z,146120.09
2023-04-19T17:46:58.201Z,146054.38
2023-04-19T17:49:26.940Z,146086.06
2023-04-19T17:51:55.642Z,145988.66
2023-04-19T17:54:22.888Z,146010.56
2023-04-19T17:56:50.223Z,145954.63
2023-04-19T17:59:18.551Z,145954.63
2023-04-19T18:01:45.733Z,145957.03
2023-04-19T18:04:17.378Z,145954.63
2023-04-19T18:06:47.063Z,145926.66
2023-04-19T18:09:14.715Z,145870.69
2023-04-19T18:11:42.024Z,145862.22
2023-04-19T18:14:09.041Z,145842.75
2023-04-19T18:16:36.219Z,145784.38
2023-04-19T18:19:03.275Z,145812.38
2023-04-19T18:21:30.440Z,145803.88
2023-04-19T18:23:57.465Z,145779.53
2023-04-19T18:26:24.630Z,145767.41
2023-04-19T18:28:51.661Z,145747.97
2023-04-19T18:31:18.668Z,145704.19
2023-04-19T18:33:45.770Z,145690.78
2023-04-19T18:36:12.804Z,145709.06
2023-04-19T18:38:39.821Z,145666.50
2023-04-19T18:41:06.906Z,145640.97
2023-04-19T18:43:33.904Z,145675.00
2023-04-19T18:46:01.319Z,145633.66
2023-04-19T18:48:29.775Z,145585.09
2023-04-19T18:50:57.318Z,145600.84
2023-04-19T18:53:27.623Z,145611.81
2023-04-19T18:55:57.651Z,145596.00
2023-04-19T18:58:26.779Z,145548.66
2023-04-19T19:00:54.708Z,145576.56
2023-04-19T19:05:54.769Z,145547.44
2023-04-19T19:08:21.981Z,145473.31
2023-04-19T19:11:14.247Z,145480.63
2023-04-19T19:13:36.142Z,145495.19
2023-04-19T19:16:05.355Z,145458.75
2023-04-19T19:18:32.544Z,145487.88
2023-04-19T19:21:03.070Z,145439.34
2023-04-19T19:23:35.718Z,145473.31
2023-04-19T19:26:04.983Z,145400.47
2023-04-19T19:28:31.971Z,145413.81
2023-04-19T19:30:59.023Z,145378.59
2023-04-19T19:33:28.661Z,145433.25
2023-04-19T19:35:55.972Z,145384.69
2023-04-19T19:38:23.023Z,145390.75
2023-04-19T19:43:19.927Z,145367.69
2023-04-19T19:45:46.947Z,145364.03
2023-04-19T19:48:14.374Z,145361.63
2023-04-19T19:53:11.477Z,145332.47
2023-04-19T19:55:38.523Z,145332.47
2023-04-19T20:03:06.673Z,145294.88
2023-04-19T20:05:34.235Z,145298.50
2023-04-19T20:08:11.697Z,145265.75
2023-04-19T20:10:41.437Z,145254.78
2023-04-19T20:13:08.562Z,145269.34
2023-04-19T20:15:37.063Z,145263.31
2023-04-19T20:18:05.172Z,145252.41
2023-04-19T20:20:32.273Z,145222.00
2023-04-19T20:22:59.330Z,145222.00
2023-04-19T20:25:26.765Z,145197.75
2023-04-19T20:27:54.261Z,145189.25
2023-04-19T20:30:21.394Z,145121.31
2023-04-19T20:32:49.998Z,145157.69
2023-04-19T20:35:17.410Z,145138.31
2023-04-19T20:37:44.469Z,145114.00
2023-04-19T20:40:14.372Z,145148.00
2023-04-19T20:42:42.306Z,145063.06
2023-04-19T20:45:10.508Z,145131.00
2023-04-19T20:47:38.367Z,145127.34
2023-04-19T20:50:06.883Z,145098.25
2023-04-19T20:52:34.733Z,145106.75
2023-04-19T20:55:01.911Z,145061.88
2023-04-19T20:57:29.005Z,145072.75
2023-04-19T20:59:56.030Z,145067.91
2023-04-19T21:02:23.120Z,145048.53
2023-04-19T21:04:50.232Z,145000.00
2023-04-19T21:07:17.243Z,145044.88
2023-04-19T21:09:44.294Z,145000.00
2023-04-19T21:12:11.455Z,145014.53
2023-04-19T21:14:38.537Z,145006.09
2023-04-19T21:17:05.921Z,145017.00
2023-04-19T21:19:32.925Z,145004.84
2023-04-19T21:21:59.926Z,144961.22
2023-04-19T21:24:26.928Z,144986.66
2023-04-19T21:26:53.984Z,144973.31
2023-04-19T21:29:21.030Z,144975.75
2023-04-19T21:31:48.153Z,144990.31
2023-04-19T21:34:15.327Z,144966.06
2023-04-19T21:36:42.365Z,144991.50
2023-04-19T21:39:10.138Z,144952.72
2023-04-19T21:41:38.005Z,144981.81
2023-04-19T21:44:05.082Z,144966.06
2023-04-19T21:46:33.282Z,144946.69
2023-04-19T21:49:00.357Z,144940.59
2023-04-19T21:51:27.552Z,144903.00
2023-04-19T21:53:54.561Z,144852.13
2023-04-19T21:56:21.611Z,144820.59
2023-04-19T21:58:48.662Z,144757.56
2023-04-19T22:01:16.682Z,144743.03
2023-04-19T22:03:45.755Z,144727.28
2023-04-19T22:06:13.852Z,144756.38
2023-04-19T22:08:42.322Z,144738.19
2023-04-19T22:11:09.312Z,144730.91
2023-04-19T22:13:37.322Z,144711.53
2023-04-19T22:16:04.840Z,144680.03
2023-04-19T22:18:34.099Z,144658.19
2023-04-19T22:21:01.302Z,144643.66
2023-04-19T22:23:28.322Z,144614.56
2023-04-19T22:25:55.349Z,144587.94
2023-04-19T22:28:22.431Z,144598.84
2023-04-19T22:30:51.160Z,144575.81
2023-04-19T22:33:19.043Z,144537.06
2023-04-19T22:35:46.205Z,144531.00
2023-04-19T22:38:13.367Z,144552.81
2023-04-19T22:40:40.562Z,144550.38
2023-04-19T22:43:07.564Z,144524.97
2023-04-19T22:45:34.601Z,144516.50
2023-04-19T22:48:03.051Z,144541.88
2023-04-19T22:50:30.155Z,144554.00
2023-04-19T22:52:57.193Z,144503.16
2023-04-19T22:55:24.360Z,144478.97
2023-04-19T22:57:51.418Z,144509.22
2023-04-19T23:00:18.828Z,144495.88
2023-04-19T23:02:45.992Z,144486.22
2023-04-19T23:05:13.420Z,144457.16
2023-04-19T23:07:41.915Z,144396.66
2023-04-19T23:10:10.193Z,144463.22
2023-04-19T23:12:38.763Z,144408.72
2023-04-19T23:15:06.754Z,144441.41
2023-04-19T23:17:34.472Z,144417.22
2023-04-19T23:20:01.490Z,144370.03
2023-04-19T23:22:28.622Z,144411.19
2023-04-19T23:24:55.980Z,144391.78
2023-04-19T23:27:22.975Z,144386.94
2023-04-19T23:29:50.139Z,144377.25
2023-04-19T23:32:18.153Z,144365.19
2023-04-19T23:34:45.278Z,144374.88
2023-04-19T23:37:13.661Z,144371.22
2023-04-19T23:39:40.937Z,144361.56
2023-04-19T23:42:07.981Z,144428.09
2023-04-19T23:44:35.362Z,144428.09
2023-04-19T23:47:05.023Z,144441.41
2023-04-19T23:49:32.291Z,144447.50
2023-04-19T23:51:59.480Z,144399.06
2023-04-19T23:54:26.658Z,144384.53
2023-04-19T23:56:54.269Z,144430.53
2023-04-19T23:59:21.252Z,144399.06
